Time;durP1;ratioP1;P1;durP2;ratioP2;P2;SDS_P1;SDS_P2;PMS_P1;PMS_P2;Temp;Humidity;BMP_temperature;BMP_pressure;BME280_temperature;BME280_humidity;BME280_pressure;Samples;Min_cycle;Max_cycle;Signal;HPM_P1;HPM_P2
2023/05/25 00:01:34;;;;;;;14.45;7.10;;;9.30;92.30;;;;;;5007202;28;20402;-80
2023/05/25 00:04:01;;;;;;;18.25;7.63;;;9.00;94.10;;;;;;5007882;28;20554;-80
2023/05/25 00:06:28;;;;;;;18.15;8.18;;;9.10;98.30;;;;;;5008896;28;20026;-80
2023/05/25 00:08:56;;;;;;;14.43;8.38;;;9.20;96.00;;;;;;5026048;28;20591;-80
2023/05/25 00:11:25;;;;;;;14.93;6.50;;;9.30;94.50;;;;;;5023503;28;20496;-80
2023/05/25 00:13:51;;;;;;;11.93;6.15;;;9.30;92.70;;;;;;5020933;28;20041;-80
2023/05/25 00:16:16;;;;;;;13.32;6.97;;;9.40;92.10;;;;;;4991348;28;20033;-80
2023/05/25 00:18:42;;;;;;;16.45;7.95;;;9.40;91.70;;;;;;5026191;28;20454;-80
2023/05/25 00:21:08;;;;;;;19.23;8.40;;;9.20;97.70;;;;;;5006655;28;20037;-80
2023/05/25 00:23:34;;;;;;;15.90;7.65;;;9.00;99.30;;;;;;5005998;28;20063;-80
2023/05/25 00:26:02;;;;;;;9.63;5.80;;;9.00;95.00;;;;;;5007085;28;20037;-80
2023/05/25 00:28:28;;;;;;;12.05;5.13;;;9.20;94.10;;;;;;5023833;28;20429;-80
2023/05/25 00:30:54;;;;;;;17.15;8.18;;;9.20;93.00;;;;;;5024010;28;20033;-80
2023/05/25 00:33:20;;;;;;;13.57;7.60;;;9.10;93.20;;;;;;5004530;28;20922;-80
2023/05/25 00:35:46;;;;;;;24.23;9.55;;;9.00;93.70;;;;;;5023640;28;20112;-81
2023/05/25 00:38:13;;;;;;;16.15;7.57;;;8.90;94.00;;;;;;5026823;28;20100;-81
2023/05/25 00:40:39;;;;;;;13.20;6.60;;;8.90;93.50;;;;;;5008409;28;20037;-81
2023/05/25 00:43:06;;;;;;;15.00;8.02;;;9.00;93.50;;;;;;5008317;28;20422;-80
2023/05/25 00:45:32;;;;;;;15.38;8.85;;;8.90;93.00;;;;;;5009983;28;20111;-81
2023/05/25 00:47:58;;;;;;;16.00;8.23;;;8.80;94.90;;;;;;5009512;28;20422;-81
2023/05/25 00:50:41;;;;;;;12.63;6.63;;;8.70;95.10;;;;;;5022854;28;20052;-81
2023/05/25 00:53:07;;;;;;;15.32;6.57;;;8.60;94.10;;;;;;5009816;28;20060;-81
2023/05/25 00:55:37;;;;;;;11.73;6.47;;;8.60;93.60;;;;;;4992329;28;20408;-80
2023/05/25 00:58:03;;;;;;;14.82;7.20;;;8.70;93.60;;;;;;5007791;28;20059;-81
2023/05/25 01:00:29;;;;;;;8.88;6.28;;;8.80;94.50;;;;;;5025515;28;20034;-80
2023/05/25 01:02:55;;;;;;;15.02;7.00;;;8.90;95.00;;;;;;5007691;28;20052;-81
2023/05/25 01:05:24;;;;;;;10.88;6.32;;;8.90;94.70;;;;;;5024252;28;20072;-81
2023/05/25 01:07:49;;;;;;;14.98;5.82;;;8.70;94.40;;;;;;5003692;28;20029;-80
2023/05/25 01:10:15;;;;;;;9.65;5.63;;;8.60;94.30;;;;;;5021775;28;20137;-80
2023/05/25 01:12:40;;;;;;;8.20;4.80;;;8.50;94.10;;;;;;5007662;28;20040;-80
2023/05/25 01:15:06;;;;;;;9.52;5.25;;;8.50;94.80;;;;;;5023262;28;20140;-79
2023/05/25 01:17:36;;;;;;;13.63;6.97;;;8.50;94.40;;;;;;5008160;28;20472;-80
2023/05/25 01:20:05;;;;;;;14.18;7.15;;;8.40;94.30;;;;;;5021165;28;20046;-80
2023/05/25 01:22:42;;;;;;;21.20;7.45;;;8.30;99.50;;;;;;5007503;28;20034;-80
2023/05/25 01:25:28;;;;;;;16.48;8.05;;;7.80;96.40;;;;;;5004841;28;20451;-80
2023/05/25 01:27:57;;;;;;;16.98;7.70;;;7.90;99.90;;;;;;5017213;28;20057;-80
2023/05/25 01:30:24;;;;;;;14.52;7.28;;;8.00;97.10;;;;;;4990323;28;20058;-80
2023/05/25 01:32:50;;;;;;;14.23;7.93;;;8.00;96.80;;;;;;4991549;28;20087;-80
2023/05/25 01:35:16;;;;;;;20.20;8.25;;;7.70;99.50;;;;;;5018035;28;20385;-79
2023/05/25 01:37:48;;;;;;;20.75;9.35;;;7.60;99.90;;;;;;5024096;28;20454;-79
2023/05/25 01:40:14;;;;;;;18.55;8.30;;;7.40;99.90;;;;;;5020585;28;20052;-81
2023/05/25 01:42:40;;;;;;;23.95;10.02;;;7.40;99.90;;;;;;4990837;28;20117;-81
2023/05/25 01:45:06;;;;;;;18.90;9.25;;;7.50;99.90;;;;;;4990068;28;20121;-81
2023/05/25 01:47:44;;;;;;;17.63;8.98;;;7.50;99.90;;;;;;5023206;28;20096;-81
2023/05/25 01:50:11;;;;;;;16.50;8.38;;;7.50;99.90;;;;;;5021328;28;20568;-81
2023/05/25 01:52:42;;;;;;;16.42;9.65;;;7.40;99.90;;;;;;5022360;28;21511;-81
2023/05/25 01:55:11;;;;;;;14.82;9.15;;;7.40;99.90;;;;;;5018780;28;20493;-80
2023/05/25 01:57:40;;;;;;;18.55;10.00;;;7.30;99.90;;;;;;5007973;28;20521;-80
2023/05/25 02:00:11;;;;;;;17.00;8.63;;;7.50;99.90;;;;;;5019156;28;20038;-80
2023/05/25 02:02:36;;;;;;;19.27;8.65;;;7.40;99.90;;;;;;5008190;28;20522;-80
2023/05/25 02:05:02;;;;;;;18.05;9.88;;;7.20;99.90;;;;;;5007905;28;20053;-80
2023/05/25 02:07:27;;;;;;;16.88;8.48;;;7.20;99.90;;;;;;5004558;28;20048;-80
2023/05/25 02:09:53;;;;;;;9.45;6.68;;;7.30;99.90;;;;;;5024673;28;20128;-80
2023/05/25 02:12:18;;;;;;;9.70;6.28;;;7.50;99.90;;;;;;5005814;28;20044;-80
2023/05/25 02:14:47;;;;;;;19.60;8.02;;;7.60;99.90;;;;;;5008113;28;20107;-80
2023/05/25 02:17:13;;;;;;;13.50;7.93;;;7.70;99.90;;;;;;5015130;28;20926;-81
2023/05/25 02:19:40;;;;;;;9.82;7.00;;;7.50;99.90;;;;;;5023737;28;20128;-80
2023/05/25 02:22:06;;;;;;;13.23;8.02;;;7.50;99.90;;;;;;4986025;28;20136;-80
2023/05/25 02:24:33;;;;;;;12.40;8.35;;;7.40;99.90;;;;;;5006665;28;20659;-80
2023/05/25 02:27:00;;;;;;;15.65;8.80;;;7.20;99.90;;;;;;5007534;28;20045;-80
2023/05/25 02:29:26;;;;;;;20.40;8.80;;;7.00;99.90;;;;;;5021220;28;20025;-80
2023/05/25 02:31:51;;;;;;;20.90;8.20;;;6.90;99.90;;;;;;5023245;28;20527;-79
2023/05/25 02:34:17;;;;;;;15.68;8.00;;;6.90;99.90;;;;;;5020650;28;20039;-80
2023/05/25 02:36:43;;;;;;;16.65;8.98;;;6.80;99.90;;;;;;4988982;28;20061;-79
2023/05/25 02:39:10;;;;;;;15.25;9.02;;;6.80;99.90;;;;;;5006122;28;20048;-78
2023/05/25 02:41:36;;;;;;;19.02;9.02;;;6.90;99.90;;;;;;5022589;28;20117;-77
2023/05/25 02:44:02;;;;;;;14.18;6.90;;;7.00;99.90;;;;;;5006334;28;20553;-80
2023/05/25 02:46:27;;;;;;;17.67;7.90;;;7.20;99.90;;;;;;5004770;28;20040;-80
2023/05/25 02:48:53;;;;;;;17.20;6.75;;;7.30;99.90;;;;;;5023763;28;20318;-80
2023/05/25 02:51:18;;;;;;;17.90;8.20;;;7.30;99.90;;;;;;5020959;28;20042;-80
2023/05/25 02:53:44;;;;;;;10.23;6.10;;;7.20;99.90;;;;;;5003008;28;20124;-80
2023/05/25 02:56:10;;;;;;;8.95;5.90;;;7.20;99.90;;;;;;5022709;28;20037;-79
2023/05/25 02:58:36;;;;;;;12.13;6.57;;;7.10;99.90;;;;;;4989865;28;20033;-79
2023/05/25 03:01:04;;;;;;;11.85;5.90;;;7.20;99.90;;;;;;5023480;28;20048;-79
2023/05/25 03:03:29;;;;;;;15.10;7.75;;;7.30;99.90;;;;;;5002011;28;20552;-79
2023/05/25 03:05:56;;;;;;;12.90;7.15;;;7.30;99.90;;;;;;5021556;28;20110;-79
2023/05/25 03:08:21;;;;;;;14.82;7.97;;;7.00;99.90;;;;;;5005938;28;20025;-79
2023/05/25 03:10:47;;;;;;;16.52;7.70;;;7.00;99.90;;;;;;5021572;28;20407;-79
2023/05/25 03:13:12;;;;;;;16.17;8.55;;;7.10;99.90;;;;;;5004242;28;20037;-79
2023/05/25 03:15:39;;;;;;;16.23;7.22;;;6.90;99.90;;;;;;4983812;28;20025;-79
2023/05/25 03:18:05;;;;;;;13.65;7.40;;;7.00;99.90;;;;;;5006998;28;20125;-79
2023/05/25 03:20:31;;;;;;;13.20;6.90;;;7.00;99.90;;;;;;4993798;28;20117;-79
2023/05/25 03:22:57;;;;;;;10.18;6.18;;;7.00;99.90;;;;;;5021243;28;20521;-79
2023/05/25 03:25:23;;;;;;;10.10;6.47;;;7.00;99.90;;;;;;5021450;28;20113;-80
2023/05/25 03:27:52;;;;;;;13.48;6.60;;;7.10;99.90;;;;;;5022318;28;20045;-80
2023/05/25 03:30:18;;;;;;;17.60;7.78;;;7.10;99.90;;;;;;5016355;28;20484;-80
2023/05/25 03:32:43;;;;;;;15.52;8.38;;;6.90;99.90;;;;;;5022362;28;20029;-80
2023/05/25 03:35:09;;;;;;;18.48;8.52;;;6.90;99.90;;;;;;5018942;28;20451;-80
2023/05/25 03:37:35;;;;;;;18.15;9.00;;;6.60;99.90;;;;;;4989008;28;20466;-78
2023/05/25 03:40:00;;;;;;;15.07;8.30;;;6.60;99.90;;;;;;4999875;28;20111;-80
2023/05/25 03:42:27;;;;;;;17.42;8.75;;;6.70;99.90;;;;;;5006037;28;20026;-80
2023/05/25 03:44:52;;;;;;;13.95;8.55;;;6.60;99.90;;;;;;5023632;28;20026;-80
2023/05/25 03:47:18;;;;;;;25.40;9.32;;;6.50;99.90;;;;;;5021700;28;20503;-80
2023/05/25 03:49:43;;;;;;;20.00;10.13;;;6.40;99.90;;;;;;4987769;28;20018;-80
2023/05/25 03:52:09;;;;;;;19.05;8.75;;;6.30;99.90;;;;;;5004326;28;20060;-79
2023/05/25 03:54:34;;;;;;;19.85;9.52;;;6.30;99.90;;;;;;5006562;28;20047;-78
2023/05/25 03:57:02;;;;;;;17.30;8.85;;;6.30;99.90;;;;;;5003596;28;20026;-79
2023/05/25 03:59:28;;;;;;;16.65;9.23;;;6.30;99.90;;;;;;5007526;28;20100;-79
2023/05/25 04:01:53;;;;;;;19.73;9.63;;;6.30;99.90;;;;;;5019143;28;20424;-79
2023/05/25 04:04:19;;;;;;;26.42;10.18;;;6.30;99.90;;;;;;4991796;28;20013;-80
2023/05/25 04:06:47;;;;;;;18.13;10.68;;;6.20;99.90;;;;;;5026304;28;20384;-79
2023/05/25 04:09:13;;;;;;;18.58;9.93;;;6.30;99.90;;;;;;5024859;28;20036;-80
2023/05/25 04:11:39;;;;;;;19.08;9.63;;;6.40;99.90;;;;;;4992739;28;20038;-81
2023/05/25 04:14:04;;;;;;;19.92;9.82;;;6.60;99.90;;;;;;5024525;28;20033;-80
2023/05/25 04:16:30;;;;;;;24.33;11.30;;;6.60;99.90;;;;;;4990900;28;20116;-80
2023/05/25 04:18:56;;;;;;;22.60;11.48;;;6.70;99.90;;;;;;5009342;28;20037;-80
2023/05/25 04:21:21;;;;;;;24.33;11.40;;;6.70;99.90;;;;;;5008275;28;20448;-79
2023/05/25 04:23:47;;;;;;;17.55;10.52;;;6.80;99.90;;;;;;5026467;28;20045;-80
2023/05/25 04:26:14;;;;;;;19.27;10.80;;;6.90;99.90;;;;;;4991416;28;20034;-79
2023/05/25 04:28:40;;;;;;;19.95;11.43;;;7.00;99.90;;;;;;5024777;28;20075;-79
2023/05/25 04:31:06;;;;;;;17.95;11.63;;;7.10;99.90;;;;;;4989212;28;20489;-80
2023/05/25 04:33:33;;;;;;;22.63;12.82;;;7.20;99.90;;;;;;4992692;28;20041;-80
2023/05/25 04:35:59;;;;;;;24.25;12.80;;;7.30;99.90;;;;;;5009352;28;20051;-80
2023/05/25 04:38:25;;;;;;;26.35;14.02;;;7.50;99.90;;;;;;5024679;28;20140;-81
2023/05/25 04:40:52;;;;;;;17.40;9.73;;;7.60;99.90;;;;;;4991166;28;20581;-81
2023/05/25 04:43:19;;;;;;;20.48;12.15;;;7.70;99.90;;;;;;5025325;28;20033;-80
2023/05/25 04:45:45;;;;;;;22.88;12.90;;;7.80;99.90;;;;;;5008242;28;20040;-80
2023/05/25 04:48:12;;;;;;;26.27;13.05;;;7.90;99.90;;;;;;5004796;28;20319;-80
2023/05/25 04:50:39;;;;;;;29.63;13.35;;;8.00;99.90;;;;;;4990393;28;20037;-80
2023/05/25 04:53:05;;;;;;;26.70;14.52;;;8.10;99.90;;;;;;5022069;28;20029;-81
2023/05/25 04:55:30;;;;;;;32.97;16.08;;;8.30;99.90;;;;;;4988222;28;20041;-80
2023/05/25 04:57:56;;;;;;;29.88;15.07;;;8.40;99.90;;;;;;4990993;28;20037;-82
2023/05/25 05:00:21;;;;;;;32.00;16.45;;;8.60;99.90;;;;;;5008698;28;20038;-81
2023/05/25 05:02:47;;;;;;;35.40;17.02;;;8.70;99.90;;;;;;5023599;28;20048;-80
2023/05/25 05:05:13;;;;;;;37.55;19.15;;;8.90;99.90;;;;;;5007355;28;20037;-79
2023/05/25 05:07:38;;;;;;;42.25;20.35;;;9.10;99.90;;;;;;5003550;28;20025;-80
2023/05/25 05:10:05;;;;;;;33.25;19.77;;;9.30;99.90;;;;;;5022426;28;20064;-79
2023/05/25 05:12:30;;;;;;;33.63;19.88;;;9.40;99.90;;;;;;5008388;28;20037;-80
2023/05/25 05:14:56;;;;;;;40.88;21.23;;;9.60;99.90;;;;;;4989754;28;20037;-80
2023/05/25 05:17:22;;;;;;;33.38;21.50;;;9.80;99.90;;;;;;5023130;28;20497;-80
2023/05/25 05:19:48;;;;;;;43.22;20.33;;;10.00;99.90;;;;;;5005312;28;20431;-80
2023/05/25 05:22:14;;;;;;;46.45;21.98;;;10.20;99.90;;;;;;5005182;28;20751;-80
2023/05/25 05:24:40;;;;;;;47.40;21.92;;;10.40;99.90;;;;;;5007393;28;20026;-80
2023/05/25 05:27:06;;;;;;;37.00;20.50;;;10.60;99.90;;;;;;5006268;28;20034;-79
2023/05/25 05:29:33;;;;;;;36.50;17.15;;;10.80;99.90;;;;;;5001829;28;20043;-80
2023/05/25 05:31:59;;;;;;;38.28;20.45;;;11.00;99.90;;;;;;5007773;28;20112;-80
2023/05/25 05:34:25;;;;;;;37.90;18.98;;;11.20;99.90;;;;;;5023683;28;20037;-80
2023/05/25 05:36:50;;;;;;;30.20;16.55;;;11.50;99.90;;;;;;5023855;28;20033;-80
2023/05/25 05:39:16;;;;;;;23.58;14.10;;;11.80;99.90;;;;;;5007517;28;20558;-80
2023/05/25 05:41:44;;;;;;;24.00;11.05;;;12.00;99.90;;;;;;4989536;28;20053;-80
2023/05/25 05:44:10;;;;;;;23.58;12.27;;;12.30;99.90;;;;;;5022373;28;20076;-80
2023/05/25 05:46:36;;;;;;;20.92;11.25;;;12.50;99.90;;;;;;5023984;28;20072;-80
2023/05/25 05:49:02;;;;;;;18.00;10.77;;;12.70;99.90;;;;;;4992330;28;20042;-79
2023/05/25 05:51:28;;;;;;;23.67;10.88;;;12.90;99.90;;;;;;5018871;28;20037;-81
2023/05/25 05:53:54;;;;;;;14.57;8.82;;;13.20;99.90;;;;;;5005450;28;20033;-80
2023/05/25 05:56:20;;;;;;;19.08;9.65;;;13.40;99.90;;;;;;5023045;28;20033;-80
2023/05/25 05:58:48;;;;;;;19.08;9.82;;;13.60;99.90;;;;;;5023243;28;20041;-80
2023/05/25 06:01:17;;;;;;;16.75;9.40;;;13.70;99.90;;;;;;5021752;28;20041;-80
2023/05/25 06:03:44;;;;;;;13.07;9.63;;;13.90;99.90;;;;;;5003723;28;20513;-78
2023/05/25 06:06:10;;;;;;;16.35;10.15;;;14.10;99.90;;;;;;5005307;28;20103;-78
2023/05/25 06:08:35;;;;;;;15.05;8.65;;;14.30;99.90;;;;;;4988894;28;20035;-80
2023/05/25 06:11:01;;;;;;;19.83;8.70;;;14.50;99.90;;;;;;5007242;28;20037;-79
2023/05/25 06:13:26;;;;;;;14.95;8.40;;;14.60;99.90;;;;;;5021684;28;20075;-79
2023/05/25 06:15:52;;;;;;;21.40;9.38;;;14.80;99.90;;;;;;5021777;28;20117;-79
2023/05/25 06:18:18;;;;;;;16.42;8.68;;;15.00;99.90;;;;;;5003499;28;20083;-80
2023/05/25 06:20:43;;;;;;;20.92;9.55;;;15.20;99.90;;;;;;5023070;28;20034;-80
2023/05/25 06:23:11;;;;;;;16.73;8.57;;;15.40;99.90;;;;;;5005340;28;20052;-79
2023/05/25 06:25:36;;;;;;;19.48;8.85;;;15.40;99.90;;;;;;4990111;28;20025;-79
2023/05/25 06:28:02;;;;;;;16.77;8.75;;;15.70;99.90;;;;;;5005786;28;20034;-79
2023/05/25 06:30:28;;;;;;;22.35;7.90;;;15.90;99.90;;;;;;4985179;28;20033;-79
2023/05/25 06:32:53;;;;;;;13.13;7.15;;;16.10;99.90;;;;;;5021115;28;20021;-79
2023/05/25 06:35:19;;;;;;;23.38;8.90;;;16.30;99.90;;;;;;5019296;28;20033;-78
2023/05/25 06:37:48;;;;;;;19.38;8.45;;;16.50;99.90;;;;;;5005712;28;20128;-78
2023/05/25 06:40:14;;;;;;;10.15;8.32;;;16.60;99.90;;;;;;4995134;28;20056;-78
2023/05/25 06:42:40;;;;;;;16.35;8.45;;;16.90;99.90;;;;;;5004769;28;20116;-79
2023/05/25 06:45:06;;;;;;;18.50;9.98;;;17.10;99.90;;;;;;5002870;28;20516;-78
2023/05/25 06:47:32;;;;;;;18.95;8.70;;;17.30;99.90;;;;;;5020113;28;20386;-77
2023/05/25 06:49:58;;;;;;;16.55;9.10;;;17.50;99.90;;;;;;5020900;28;20025;-79
2023/05/25 06:52:23;;;;;;;13.85;7.88;;;17.60;99.90;;;;;;5004316;28;20034;-78
2023/05/25 06:54:49;;;;;;;14.02;8.48;;;17.60;99.80;;;;;;5023193;28;20033;-78
2023/05/25 06:57:14;;;;;;;18.90;7.97;;;17.70;99.90;;;;;;5005266;28;20507;-78
2023/05/25 06:59:40;;;;;;;20.52;8.20;;;17.90;99.40;;;;;;5019933;28;20183;-77
2023/05/25 07:02:06;;;;;;;16.15;8.05;;;18.00;98.80;;;;;;5004651;28;20036;-78
2023/05/25 07:04:33;;;;;;;11.90;7.82;;;18.10;98.20;;;;;;4987664;28;20740;-78
2023/05/25 07:06:58;;;;;;;15.00;7.05;;;18.20;98.00;;;;;;5022906;28;20045;-78
2023/05/25 07:09:24;;;;;;;14.07;7.30;;;18.30;97.80;;;;;;5004877;28;20034;-78
2023/05/25 07:11:49;;;;;;;23.08;8.07;;;18.40;97.70;;;;;;5004148;28;20101;-78
2023/05/25 07:14:16;;;;;;;17.27;8.50;;;18.30;96.90;;;;;;5021460;28;20029;-78
2023/05/25 07:16:43;;;;;;;23.15;8.38;;;18.40;96.60;;;;;;5020725;28;20716;-78
2023/05/25 07:19:10;;;;;;;21.13;8.30;;;18.50;96.50;;;;;;5021878;28;20045;-78
2023/05/25 07:21:35;;;;;;;17.88;8.50;;;18.60;95.70;;;;;;5020089;28;20033;-78
2023/05/25 07:24:04;;;;;;;18.50;7.90;;;18.50;95.50;;;;;;5001971;28;20481;-78
2023/05/25 07:26:30;;;;;;;17.35;8.20;;;18.60;96.10;;;;;;5020326;28;20503;-78
2023/05/25 07:28:56;;;;;;;14.85;8.18;;;18.90;95.70;;;;;;5020269;28;20042;-78
2023/05/25 07:31:22;;;;;;;16.48;8.43;;;19.10;94.50;;;;;;5015679;28;20417;-77
2023/05/25 07:33:47;;;;;;;16.63;8.80;;;19.20;93.70;;;;;;5000852;28;20048;-77
2023/05/25 07:36:14;;;;;;;15.05;6.72;;;19.40;93.50;;;;;;5019589;28;20064;-78
2023/05/25 07:38:39;;;;;;;15.27;6.90;;;19.40;93.50;;;;;;5006792;28;20065;-78
2023/05/25 07:41:05;;;;;;;18.60;7.70;;;19.40;92.70;;;;;;5023818;28;20034;-78
2023/05/25 07:43:31;;;;;;;16.00;7.03;;;19.40;92.30;;;;;;4993185;28;20032;-78
2023/05/25 07:45:56;;;;;;;11.52;5.50;;;19.50;91.90;;;;;;5022042;28;20041;-78
2023/05/25 07:48:22;;;;;;;10.88;5.43;;;19.70;91.90;;;;;;5021552;28;20064;-78
2023/05/25 07:50:48;;;;;;;15.95;6.22;;;19.70;92.20;;;;;;5018354;28;20049;-78
2023/05/25 07:53:13;;;;;;;12.30;5.07;;;19.80;92.40;;;;;;5021239;28;20124;-78
2023/05/25 07:55:39;;;;;;;19.00;5.97;;;20.20;91.10;;;;;;5024774;28;20367;-78
2023/05/25 07:58:06;;;;;;;13.25;5.18;;;20.40;90.80;;;;;;5023974;28;20045;-78
2023/05/25 08:00:32;;;;;;;15.18;5.93;;;20.40;90.80;;;;;;5024115;28;20528;-78
2023/05/25 08:02:57;;;;;;;14.35;6.00;;;20.40;90.30;;;;;;5026578;28;20079;-78
2023/05/25 08:05:23;;;;;;;12.57;4.88;;;20.40;90.20;;;;;;5023789;28;20086;-78
2023/05/25 08:07:48;;;;;;;11.43;5.20;;;20.50;90.50;;;;;;5022666;28;20121;-77
2023/05/25 08:10:14;;;;;;;16.70;6.47;;;20.60;90.00;;;;;;5022861;28;20057;-77
2023/05/25 08:12:40;;;;;;;15.90;5.57;;;20.70;89.00;;;;;;5008626;28;20041;-77
2023/05/25 08:15:06;;;;;;;16.15;5.03;;;20.80;85.90;;;;;;5007388;28;20045;-77
2023/05/25 08:17:31;;;;;;;11.18;5.15;;;20.70;86.40;;;;;;5008248;28;20121;-78
2023/05/25 08:19:57;;;;;;;17.42;6.53;;;20.70;87.10;;;;;;5023795;28;20416;-76
2023/05/25 08:22:23;;;;;;;10.55;4.50;;;20.80;87.30;;;;;;5004739;28;20095;-77
2023/05/25 08:24:49;;;;;;;15.82;5.40;;;21.00;85.90;;;;;;5023749;28;20033;-77
2023/05/25 08:27:15;;;;;;;11.25;4.68;;;20.90;84.40;;;;;;5024622;28;20461;-77
2023/05/25 08:29:40;;;;;;;11.10;4.65;;;21.00;83.10;;;;;;5021528;28;20509;-78
2023/05/25 08:32:06;;;;;;;11.73;5.03;;;21.00;82.70;;;;;;5024423;28;20121;-78
2023/05/25 08:34:32;;;;;;;16.55;4.60;;;21.10;82.70;;;;;;5025315;28;20045;-78
2023/05/25 08:36:57;;;;;;;13.88;4.70;;;20.90;82.40;;;;;;4991036;28;20041;-78
2023/05/25 08:39:23;;;;;;;8.82;4.50;;;20.90;82.90;;;;;;5005351;28;20164;-78
2023/05/25 08:41:49;;;;;;;9.45;4.85;;;21.00;82.40;;;;;;5024347;28;20044;-78
2023/05/25 08:44:15;;;;;;;9.52;4.75;;;21.20;81.20;;;;;;4989781;28;20516;-78
2023/05/25 08:46:41;;;;;;;12.23;4.97;;;21.10;82.00;;;;;;5024321;28;20026;-78
2023/05/25 08:49:10;;;;;;;10.40;4.53;;;21.50;79.90;;;;;;5007083;28;20492;-78
2023/05/25 08:51:49;;;;;;;12.90;5.10;;;21.40;80.30;;;;;;5006201;28;20036;-78
2023/05/25 08:54:36;;;;;;;10.95;5.25;;;21.50;79.70;;;;;;5024161;28;20045;-78
2023/05/25 08:57:13;;;;;;;13.27;5.45;;;21.50;80.10;;;;;;5020931;28;20041;-78
2023/05/25 09:00:09;;;;;;;10.65;4.80;;;21.60;80.10;;;;;;5023163;28;20049;-78
2023/05/25 09:02:39;;;;;;;11.98;4.80;;;21.80;78.30;;;;;;5022966;28;20149;-78
2023/05/25 09:05:05;;;;;;;13.23;5.00;;;21.80;75.90;;;;;;5022937;28;20033;-78
2023/05/25 09:07:31;;;;;;;9.02;5.07;;;21.90;76.80;;;;;;5022565;28;20025;-78
2023/05/25 09:09:57;;;;;;;10.38;4.10;;;22.00;76.10;;;;;;4991312;28;20033;-80
2023/05/25 09:12:22;;;;;;;10.15;5.05;;;22.10;77.60;;;;;;5024272;28;20074;-79
2023/05/25 09:14:48;;;;;;;13.90;4.70;;;22.30;77.00;;;;;;5024664;28;20025;-80
2023/05/25 09:17:14;;;;;;;13.07;5.45;;;22.40;77.10;;;;;;5021211;28;20037;-80
2023/05/25 09:19:40;;;;;;;9.18;4.22;;;22.60;75.60;;;;;;4985699;28;20612;-80
2023/05/25 09:22:06;;;;;;;12.10;4.45;;;22.70;74.90;;;;;;5020636;28;20112;-79
2023/05/25 09:24:31;;;;;;;8.38;3.47;;;22.80;75.10;;;;;;4991180;28;20037;-79
2023/05/25 09:26:57;;;;;;;8.70;3.95;;;23.00;74.00;;;;;;5003904;28;20033;-79
2023/05/25 09:29:23;;;;;;;8.43;4.10;;;23.10;74.50;;;;;;5007097;28;20022;-79
2023/05/25 09:31:48;;;;;;;8.63;4.05;;;23.00;73.90;;;;;;5021514;28;20037;-79
2023/05/25 09:34:14;;;;;;;8.32;4.13;;;23.20;74.10;;;;;;5018935;28;20567;-80
2023/05/25 09:36:40;;;;;;;8.80;4.45;;;23.30;74.40;;;;;;4989756;28;20521;-79
2023/05/25 09:39:09;;;;;;;12.18;4.25;;;23.50;73.80;;;;;;5002704;28;20069;-78
2023/05/25 09:41:35;;;;;;;7.78;4.28;;;23.60;73.40;;;;;;5005616;28;20389;-78
2023/05/25 09:44:01;;;;;;;9.05;3.08;;;23.80;71.50;;;;;;5022595;28;20099;-78
2023/05/25 09:46:27;;;;;;;7.22;3.88;;;23.80;72.20;;;;;;5023309;28;20029;-78
2023/05/25 09:48:53;;;;;;;11.45;5.25;;;23.90;73.80;;;;;;5016883;28;20028;-78
2023/05/25 09:51:19;;;;;;;10.65;4.90;;;24.20;70.60;;;;;;5021732;28;20060;-77
2023/05/25 09:53:44;;;;;;;12.15;4.53;;;24.30;69.80;;;;;;5022722;28;20115;-78
2023/05/25 09:56:11;;;;;;;10.20;4.57;;;24.30;68.80;;;;;;5004322;28;20447;-78
2023/05/25 09:58:36;;;;;;;11.98;4.47;;;24.00;68.60;;;;;;5004393;28;20033;-77
2023/05/25 10:01:03;;;;;;;9.50;5.50;;;24.00;69.00;;;;;;5003000;28;20026;-77
2023/05/25 10:03:29;;;;;;;6.38;4.43;;;24.00;67.90;;;;;;5023154;28;20501;-77
2023/05/25 10:05:55;;;;;;;7.70;4.32;;;23.70;66.80;;;;;;4990537;28;20120;-78
2023/05/25 10:08:20;;;;;;;7.93;5.32;;;23.80;67.30;;;;;;5007807;28;20171;-78
2023/05/25 10:10:48;;;;;;;8.00;4.25;;;23.80;67.30;;;;;;5004847;28;20557;-78
2023/05/25 10:13:14;;;;;;;8.65;4.95;;;23.70;67.10;;;;;;5005454;28;20037;-78
2023/05/25 10:15:39;;;;;;;9.40;4.88;;;23.90;67.70;;;;;;5007332;28;20036;-78
2023/05/25 10:18:06;;;;;;;12.23;5.60;;;24.00;67.80;;;;;;5022011;28;20049;-78
2023/05/25 10:20:32;;;;;;;10.93;5.28;;;23.90;67.10;;;;;;5009580;28;20029;-78
2023/05/25 10:23:08;;;;;;;8.45;4.20;;;23.90;67.70;;;;;;5023089;28;20037;-78
2023/05/25 10:25:37;;;;;;;9.32;4.70;;;24.00;68.40;;;;;;5021277;28;20785;-79
2023/05/25 10:28:07;;;;;;;12.50;4.55;;;24.00;67.10;;;;;;5022086;28;20072;-79
2023/05/25 10:30:32;;;;;;;6.57;4.35;;;23.80;67.50;;;;;;5007366;28;20037;-79
2023/05/25 10:32:58;;;;;;;13.98;5.15;;;23.90;65.70;;;;;;5005774;28;20048;-79
2023/05/25 10:35:24;;;;;;;7.10;4.38;;;23.90;66.30;;;;;;5002400;28;20573;-79
2023/05/25 10:37:52;;;;;;;11.73;4.75;;;23.90;67.60;;;;;;5007785;28;20505;-79
2023/05/25 10:40:24;;;;;;;9.82;4.57;;;23.90;66.20;;;;;;5003133;28;20622;-80
2023/05/25 10:42:50;;;;;;;10.38;4.85;;;23.90;67.00;;;;;;4323031;28;10000103;-79
2023/05/25 10:45:16;;;;;;;9.70;5.00;;;23.70;66.60;;;;;;5020936;28;20041;-80
2023/05/25 10:47:41;;;;;;;11.82;5.22;;;23.70;65.50;;;;;;4987656;28;20400;-79
2023/05/25 10:50:18;;;;;;;8.75;4.18;;;23.60;65.90;;;;;;4656920;28;9999572;-80
2023/05/25 10:52:43;;;;;;;7.82;4.80;;;23.70;67.30;;;;;;4985066;28;20041;-79
2023/05/25 10:55:10;;;;;;;8.20;4.75;;;23.90;67.20;;;;;;5019917;28;20848;-79
2023/05/25 10:57:36;;;;;;;9.95;4.78;;;23.80;67.40;;;;;;5001535;28;20033;-80
2023/05/25 11:00:05;;;;;;;11.65;5.22;;;24.00;68.00;;;;;;5003181;28;20387;-79
2023/05/25 11:02:46;;;;;;;9.70;5.28;;;24.20;65.90;;;;;;5001872;28;20068;-80
2023/05/25 11:05:29;;;;;;;11.60;5.10;;;24.20;65.30;;;;;;5014807;28;20565;-79
2023/05/25 11:07:56;;;;;;;8.10;4.20;;;24.20;65.50;;;;;;5021717;28;20033;-79
2023/05/25 11:10:40;;;;;;;7.22;4.05;;;24.20;66.20;;;;;;5004570;28;20051;-79
2023/05/25 11:13:30;;;;;;;12.77;5.53;;;24.20;67.00;;;;;;5001212;28;20860;-79
2023/05/25 11:16:18;;;;;;;8.35;4.70;;;24.30;65.10;;;;;;5021199;28;20432;-79
2023/05/25 11:18:56;;;;;;;11.85;5.28;;;24.30;65.80;;;;;;5006337;28;20030;-79
2023/05/25 11:21:29;;;;;;;11.23;5.18;;;24.30;66.00;;;;;;5023844;28;20032;-79
2023/05/25 11:23:55;;;;;;;12.75;6.18;;;24.40;65.50;;;;;;5040297;28;20029;-78
2023/05/25 11:26:30;;;;;;;9.45;5.65;;;24.40;65.50;;;;;;5017026;28;20046;-79
2023/05/25 11:29:00;;;;;;;15.00;6.03;;;24.40;65.20;;;;;;5021457;28;20485;-79
2023/05/25 11:31:32;;;;;;;13.35;5.78;;;24.30;64.30;;;;;;5006207;28;20555;-80
2023/05/25 11:33:59;;;;;;;9.38;5.95;;;24.40;64.70;;;;;;5039955;28;20113;-79
2023/05/25 11:36:26;;;;;;;8.02;5.13;;;24.60;64.50;;;;;;5018188;28;20117;-78
2023/05/25 11:38:53;;;;;;;9.80;5.63;;;24.50;64.70;;;;;;5006891;28;20518;-79
2023/05/25 11:41:22;;;;;;;7.60;5.05;;;24.60;64.50;;;;;;5021120;28;20386;-79
2023/05/25 11:43:48;;;;;;;9.40;5.00;;;24.70;64.50;;;;;;5019818;28;20027;-79
2023/05/25 11:46:20;;;;;;;7.20;4.60;;;24.90;62.90;;;;;;5007837;28;20385;-79
2023/05/25 11:48:52;;;;;;;13.63;4.63;;;25.10;62.40;;;;;;5005558;28;20064;-79
2023/05/25 11:51:19;;;;;;;5.85;3.80;;;25.10;64.50;;;;;;5022381;28;20034;-79
2023/05/25 11:53:45;;;;;;;10.88;5.57;;;25.30;63.00;;;;;;5006931;28;20091;-79
2023/05/25 11:56:13;;;;;;;11.65;5.05;;;25.30;62.10;;;;;;5020710;28;20045;-80
2023/05/25 11:58:39;;;;;;;9.55;5.10;;;25.10;64.00;;;;;;4993439;28;20112;-79
2023/05/25 12:01:21;;;;;;;10.73;5.13;;;25.20;62.20;;;;;;5006599;28;20125;-80
2023/05/25 12:03:48;;;;;;;10.18;5.00;;;;;;;;;;5006317;28;20044;-79
2023/05/25 12:06:42;;;;;;;6.45;4.38;;;25.30;62.20;;;;;;5001830;28;20481;-79
2023/05/25 12:09:14;;;;;;;11.43;4.55;;;25.40;63.00;;;;;;5010123;28;20034;-80
2023/05/25 12:11:44;;;;;;;10.15;4.90;;;25.30;62.40;;;;;;5026125;28;20474;-79
2023/05/25 12:14:09;;;;;;;7.85;5.53;;;25.30;62.20;;;;;;5026462;28;20761;-79
2023/05/25 12:16:37;;;;;;;10.35;5.57;;;25.30;63.40;;;;;;5005479;28;20061;-79
2023/05/25 12:19:03;;;;;;;11.48;5.07;;;25.40;62.10;;;;;;5006803;28;20507;-79
2023/05/25 12:21:29;;;;;;;9.50;4.57;;;25.50;61.70;;;;;;5024518;28;20124;-79
2023/05/25 12:23:55;;;;;;;12.48;4.82;;;25.60;61.80;;;;;;5020558;28;20045;-79
2023/05/25 12:26:20;;;;;;;7.85;4.45;;;25.50;61.80;;;;;;5024202;28;20033;-80
2023/05/25 12:28:59;;;;;;;12.45;5.30;;;25.30;61.40;;;;;;5005031;28;20056;-80
2023/05/25 12:31:26;;;;;;;11.63;5.00;;;25.40;60.90;;;;;;5021996;28;20064;-81
2023/05/25 12:34:04;;;;;;;10.48;5.10;;;25.30;61.30;;;;;;5023966;28;20464;-80
2023/05/25 12:36:52;;;;;;;10.00;4.88;;;25.20;61.50;;;;;;5019584;28;20037;-80
2023/05/25 12:39:30;;;;;;;8.50;5.10;;;25.20;61.70;;;;;;4991643;28;20040;-80
2023/05/25 12:42:01;;;;;;;8.15;4.90;;;25.10;61.50;;;;;;5022657;28;20033;-81